sensor_id;sensor_type;location;lat;lon;timestamp;P1;P2;P0
70249;PMS5003;57644;48.416;-123.374;2022-10-16T00:02:07;36;32;
70249;PMS5003;57644;48.416;-123.374;2022-10-16T00:04:37;45;37;
70249;PMS5003;57644;48.416;-123.374;2022-10-16T00:07:07;32;28;
70249;PMS5003;57644;48.416;-123.374;2022-10-16T00:09:37;38;35;
70249;PMS5003;57644;48.416;-123.374;2022-10-16T00:12:08;41;38;
70249;PMS5003;57644;48.416;-123.374;2022-10-16T00:14:38;24;22;
70249;PMS5003;57644;48.416;-123.374;2022-10-16T00:17:08;23;18;
70249;PMS5003;57644;48.416;-123.374;2022-10-16T00:19:38;33;30;
70249;PMS5003;57644;48.416;-123.374;2022-10-16T00:22:09;27;23;
70249;PMS5003;57644;48.416;-123.374;2022-10-16T00:24:39;30;26;
70249;PMS5003;57644;48.416;-123.374;2022-10-16T00:27:09;38;29;
70249;PMS5003;57644;48.416;-123.374;2022-10-16T00:29:39;20;16;
70249;PMS5003;57644;48.416;-123.374;2022-10-16T00:32:10;15;14;
70249;PMS5003;57644;48.416;-123.374;2022-10-16T00:34:40;48;42;
70249;PMS5003;57644;48.416;-123.374;2022-10-16T00:37:11;58;53;
70249;PMS5003;57644;48.416;-123.374;2022-10-16T00:39:42;18;16;
70249;PMS5003;57644;48.416;-123.374;2022-10-16T00:42:13;25;24;
70249;PMS5003;57644;48.416;-123.374;2022-10-16T00:44:45;19;18;
70249;PMS5003;57644;48.416;-123.374;2022-10-16T00:47:15;15;13;
70249;PMS5003;57644;48.416;-123.374;2022-10-16T00:49:44;18;17;
70249;PMS5003;57644;48.416;-123.374;2022-10-16T00:52:14;18;17;
70249;PMS5003;57644;48.416;-123.374;2022-10-16T00:54:44;17;16;
70249;PMS5003;57644;48.416;-123.374;2022-10-16T00:57:15;24;22;
70249;PMS5003;57644;48.416;-123.374;2022-10-16T00:59:45;23;22;
70249;PMS5003;57644;48.416;-123.374;2022-10-16T01:02:16;36;32;
70249;PMS5003;57644;48.416;-123.374;2022-10-16T01:04:48;25;22;
70249;PMS5003;57644;48.416;-123.374;2022-10-16T01:07:20;50;49;
70249;PMS5003;57644;48.416;-123.374;2022-10-16T01:09:51;48;47;
70249;PMS5003;57644;48.416;-123.374;2022-10-16T01:12:20;33;31;
70249;PMS5003;57644;48.416;-123.374;2022-10-16T01:14:51;25;25;
70249;PMS5003;57644;48.416;-123.374;2022-10-16T01:17:22;27;25;
70249;PMS5003;57644;48.416;-123.374;2022-10-16T01:19:55;20;18;
70249;PMS5003;57644;48.416;-123.374;2022-10-16T01:22:21;35;29;
70249;PMS5003;57644;48.416;-123.374;2022-10-16T01:24:50;21;19;
70249;PMS5003;57644;48.416;-123.374;2022-10-16T01:27:22;16;13;
70249;PMS5003;57644;48.416;-123.374;2022-10-16T01:29:53;15;14;
70249;PMS5003;57644;48.416;-123.374;2022-10-16T01:32:24;12;10;
70249;PMS5003;57644;48.416;-123.374;2022-10-16T01:34:52;10;10;
70249;PMS5003;57644;48.416;-123.374;2022-10-16T01:37:25;9;8;
70249;PMS5003;57644;48.416;-123.374;2022-10-16T01:39:52;9;8;
70249;PMS5003;57644;48.416;-123.374;2022-10-16T01:42:24;7;7;
70249;PMS5003;57644;48.416;-123.374;2022-10-16T01:44:53;14;13;
70249;PMS5003;57644;48.416;-123.374;2022-10-16T01:47:24;25;22;
70249;PMS5003;57644;48.416;-123.374;2022-10-16T01:49:54;17;17;
70249;PMS5003;57644;48.416;-123.374;2022-10-16T01:52:25;20;19;
70249;PMS5003;57644;48.416;-123.374;2022-10-16T01:54:55;26;25;
70249;PMS5003;57644;48.416;-123.374;2022-10-16T01:57:25;18;13;
70249;PMS5003;57644;48.416;-123.374;2022-10-16T01:59:58;10;10;
70249;PMS5003;57644;48.416;-123.374;2022-10-16T02:02:26;17;16;
70249;PMS5003;57644;48.416;-123.374;2022-10-16T02:04:58;11;11;
70249;PMS5003;57644;48.416;-123.374;2022-10-16T02:07:27;10;10;
70249;PMS5003;57644;48.416;-123.374;2022-10-16T02:09:58;10;9;
70249;PMS5003;57644;48.416;-123.374;2022-10-16T02:12:29;13;11;
70249;PMS5003;57644;48.416;-123.374;2022-10-16T02:14:58;11;11;
70249;PMS5003;57644;48.416;-123.374;2022-10-16T02:17:29;13;11;
70249;PMS5003;57644;48.416;-123.374;2022-10-16T02:19:59;13;12;
70249;PMS5003;57644;48.416;-123.374;2022-10-16T02:22:32;17;16;
70249;PMS5003;57644;48.416;-123.374;2022-10-16T02:25:01;14;11;
70249;PMS5003;57644;48.416;-123.374;2022-10-16T02:27:32;16;14;
70249;PMS5003;57644;48.416;-123.374;2022-10-16T02:30:03;17;16;
70249;PMS5003;57644;48.416;-123.374;2022-10-16T02:32:31;20;17;
70249;PMS5003;57644;48.416;-123.374;2022-10-16T02:35:02;14;14;
70249;PMS5003;57644;48.416;-123.374;2022-10-16T02:37:31;18;18;
70249;PMS5003;57644;48.416;-123.374;2022-10-16T02:40:02;16;15;
70249;PMS5003;57644;48.416;-123.374;2022-10-16T02:42:33;14;13;
70249;PMS5003;57644;48.416;-123.374;2022-10-16T02:45:02;16;16;
70249;PMS5003;57644;48.416;-123.374;2022-10-16T02:47:33;17;16;
70249;PMS5003;57644;48.416;-123.374;2022-10-16T02:50:03;14;13;
70249;PMS5003;57644;48.416;-123.374;2022-10-16T02:52:34;17;15;
70249;PMS5003;57644;48.416;-123.374;2022-10-16T02:55:05;14;13;
70249;PMS5003;57644;48.416;-123.374;2022-10-16T02:57:34;17;16;
70249;PMS5003;57644;48.416;-123.374;2022-10-16T03:00:05;14;14;
70249;PMS5003;57644;48.416;-123.374;2022-10-16T03:02:37;16;15;
70249;PMS5003;57644;48.416;-123.374;2022-10-16T03:05:05;18;16;
70249;PMS5003;57644;48.416;-123.374;2022-10-16T03:07:35;17;16;
70249;PMS5003;57644;48.416;-123.374;2022-10-16T03:10:06;16;15;
70249;PMS5003;57644;48.416;-123.374;2022-10-16T03:12:36;17;16;
70249;PMS5003;57644;48.416;-123.374;2022-10-16T03:15:07;17;15;
70249;PMS5003;57644;48.416;-123.374;2022-10-16T03:17:36;17;16;
70249;PMS5003;57644;48.416;-123.374;2022-10-16T03:20:07;15;14;
70249;PMS5003;57644;48.416;-123.374;2022-10-16T03:22:37;14;13;
70249;PMS5003;57644;48.416;-123.374;2022-10-16T03:25:08;13;13;
70249;PMS5003;57644;48.416;-123.374;2022-10-16T03:27:37;14;13;
70249;PMS5003;57644;48.416;-123.374;2022-10-16T03:30:08;13;13;
70249;PMS5003;57644;48.416;-123.374;2022-10-16T03:32:38;16;15;
70249;PMS5003;57644;48.416;-123.374;2022-10-16T03:35:09;14;14;
70249;PMS5003;57644;48.416;-123.374;2022-10-16T03:37:39;15;14;
70249;PMS5003;57644;48.416;-123.374;2022-10-16T03:40:10;21;21;
70249;PMS5003;57644;48.416;-123.374;2022-10-16T03:42:41;17;17;
70249;PMS5003;57644;48.416;-123.374;2022-10-16T03:45:11;15;15;
70249;PMS5003;57644;48.416;-123.374;2022-10-16T03:47:41;17;16;
70249;PMS5003;57644;48.416;-123.374;2022-10-16T03:50:11;17;15;
70249;PMS5003;57644;48.416;-123.374;2022-10-16T03:52:43;19;17;
70249;PMS5003;57644;48.416;-123.374;2022-10-16T03:55:12;20;17;
70249;PMS5003;57644;48.416;-123.374;2022-10-16T03:57:43;15;15;
70249;PMS5003;57644;48.416;-123.374;2022-10-16T04:00:13;22;21;
70249;PMS5003;57644;48.416;-123.374;2022-10-16T04:02:44;22;20;
70249;PMS5003;57644;48.416;-123.374;2022-10-16T04:05:15;16;16;
70249;PMS5003;57644;48.416;-123.374;2022-10-16T04:07:45;20;20;
70249;PMS5003;57644;48.416;-123.374;2022-10-16T04:10:15;16;15;
70249;PMS5003;57644;48.416;-123.374;2022-10-16T04:12:45;27;24;
70249;PMS5003;57644;48.416;-123.374;2022-10-16T04:15:16;24;22;
70249;PMS5003;57644;48.416;-123.374;2022-10-16T04:17:46;20;19;
70249;PMS5003;57644;48.416;-123.374;2022-10-16T04:20:17;19;19;
70249;PMS5003;57644;48.416;-123.374;2022-10-16T04:22:47;17;16;
70249;PMS5003;57644;48.416;-123.374;2022-10-16T04:25:17;19;19;
70249;PMS5003;57644;48.416;-123.374;2022-10-16T04:27:48;20;19;
70249;PMS5003;57644;48.416;-123.374;2022-10-16T04:30:18;18;17;
70249;PMS5003;57644;48.416;-123.374;2022-10-16T04:32:50;16;15;
70249;PMS5003;57644;48.416;-123.374;2022-10-16T04:35:20;17;17;
70249;PMS5003;57644;48.416;-123.374;2022-10-16T04:37:49;22;21;
70249;PMS5003;57644;48.416;-123.374;2022-10-16T04:40:20;17;17;
70249;PMS5003;57644;48.416;-123.374;2022-10-16T04:42:50;17;17;
70249;PMS5003;57644;48.416;-123.374;2022-10-16T04:45:20;15;15;
70249;PMS5003;57644;48.416;-123.374;2022-10-16T04:47:50;18;18;
70249;PMS5003;57644;48.416;-123.374;2022-10-16T04:50:21;18;18;
70249;PMS5003;57644;48.416;-123.374;2022-10-16T04:52:52;15;14;
70249;PMS5003;57644;48.416;-123.374;2022-10-16T04:55:23;19;18;
70249;PMS5003;57644;48.416;-123.374;2022-10-16T04:57:54;15;14;
70249;PMS5003;57644;48.416;-123.374;2022-10-16T05:00:22;14;13;
70249;PMS5003;57644;48.416;-123.374;2022-10-16T05:02:53;14;14;
70249;PMS5003;57644;48.416;-123.374;2022-10-16T05:05:23;13;13;
70249;PMS5003;57644;48.416;-123.374;2022-10-16T05:07:54;17;16;
70249;PMS5003;57644;48.416;-123.374;2022-10-16T05:10:28;18;18;
70249;PMS5003;57644;48.416;-123.374;2022-10-16T05:12:55;15;14;
70249;PMS5003;57644;48.416;-123.374;2022-10-16T05:15:24;17;17;
70249;PMS5003;57644;48.416;-123.374;2022-10-16T05:17:55;16;15;
70249;PMS5003;57644;48.416;-123.374;2022-10-16T05:20:25;18;16;
70249;PMS5003;57644;48.416;-123.374;2022-10-16T05:22:55;18;17;
70249;PMS5003;57644;48.416;-123.374;2022-10-16T05:25:26;14;13;
70249;PMS5003;57644;48.416;-123.374;2022-10-16T05:27:56;16;16;
70249;PMS5003;57644;48.416;-123.374;2022-10-16T05:30:27;17;15;
70249;PMS5003;57644;48.416;-123.374;2022-10-16T05:32:57;17;16;
70249;PMS5003;57644;48.416;-123.374;2022-10-16T05:35:27;14;14;
70249;PMS5003;57644;48.416;-123.374;2022-10-16T05:37:58;17;16;
70249;PMS5003;57644;48.416;-123.374;2022-10-16T05:40:28;16;15;
70249;PMS5003;57644;48.416;-123.374;2022-10-16T05:42:59;14;14;
70249;PMS5003;57644;48.416;-123.374;2022-10-16T05:45:29;18;16;
70249;PMS5003;57644;48.416;-123.374;2022-10-16T05:47:59;16;16;
70249;PMS5003;57644;48.416;-123.374;2022-10-16T05:50:29;17;17;
70249;PMS5003;57644;48.416;-123.374;2022-10-16T05:53:00;15;15;
70249;PMS5003;57644;48.416;-123.374;2022-10-16T05:55:30;14;14;
70249;PMS5003;57644;48.416;-123.374;2022-10-16T05:58:00;14;14;
70249;PMS5003;57644;48.416;-123.374;2022-10-16T06:00:30;17;17;
70249;PMS5003;57644;48.416;-123.374;2022-10-16T06:03:00;16;15;
70249;PMS5003;57644;48.416;-123.374;2022-10-16T06:05:30;19;18;
70249;PMS5003;57644;48.416;-123.374;2022-10-16T06:08:01;16;15;
70249;PMS5003;57644;48.416;-123.374;2022-10-16T06:10:31;16;16;
70249;PMS5003;57644;48.416;-123.374;2022-10-16T06:13:01;20;20;
70249;PMS5003;57644;48.416;-123.374;2022-10-16T06:15:32;17;16;
70249;PMS5003;57644;48.416;-123.374;2022-10-16T06:18:02;14;14;
70249;PMS5003;57644;48.416;-123.374;2022-10-16T06:20:32;16;16;
70249;PMS5003;57644;48.416;-123.374;2022-10-16T06:23:03;15;14;
70249;PMS5003;57644;48.416;-123.374;2022-10-16T06:25:33;15;15;
70249;PMS5003;57644;48.416;-123.374;2022-10-16T06:28:03;15;15;
70249;PMS5003;57644;48.416;-123.374;2022-10-16T06:30:34;14;14;
70249;PMS5003;57644;48.416;-123.374;2022-10-16T06:33:04;17;17;
70249;PMS5003;57644;48.416;-123.374;2022-10-16T06:35:34;22;20;
70249;PMS5003;57644;48.416;-123.374;2022-10-16T06:38:05;17;17;
70249;PMS5003;57644;48.416;-123.374;2022-10-16T06:40:35;16;16;
70249;PMS5003;57644;48.416;-123.374;2022-10-16T06:43:06;17;17;
70249;PMS5003;57644;48.416;-123.374;2022-10-16T06:45:36;17;16;
70249;PMS5003;57644;48.416;-123.374;2022-10-16T06:48:07;18;16;
70249;PMS5003;57644;48.416;-123.374;2022-10-16T06:50:37;13;13;
70249;PMS5003;57644;48.416;-123.374;2022-10-16T06:53:07;16;16;
70249;PMS5003;57644;48.416;-123.374;2022-10-16T06:55:38;17;16;
70249;PMS5003;57644;48.416;-123.374;2022-10-16T06:58:08;15;15;
70249;PMS5003;57644;48.416;-123.374;2022-10-16T07:00:39;18;17;
70249;PMS5003;57644;48.416;-123.374;2022-10-16T07:03:09;15;15;
70249;PMS5003;57644;48.416;-123.374;2022-10-16T07:05:40;18;18;
70249;PMS5003;57644;48.416;-123.374;2022-10-16T07:08:10;17;16;
70249;PMS5003;57644;48.416;-123.374;2022-10-16T07:10:40;14;13;
70249;PMS5003;57644;48.416;-123.374;2022-10-16T07:13:10;19;18;
70249;PMS5003;57644;48.416;-123.374;2022-10-16T07:15:41;16;16;
70249;PMS5003;57644;48.416;-123.374;2022-10-16T07:18:11;20;20;
70249;PMS5003;57644;48.416;-123.374;2022-10-16T07:20:41;18;17;
70249;PMS5003;57644;48.416;-123.374;2022-10-16T07:23:12;18;17;
70249;PMS5003;57644;48.416;-123.374;2022-10-16T07:25:42;18;17;
70249;PMS5003;57644;48.416;-123.374;2022-10-16T07:28:13;17;15;
70249;PMS5003;57644;48.416;-123.374;2022-10-16T07:30:43;21;19;
70249;PMS5003;57644;48.416;-123.374;2022-10-16T07:33:14;22;20;
70249;PMS5003;57644;48.416;-123.374;2022-10-16T07:35:48;17;16;
70249;PMS5003;57644;48.416;-123.374;2022-10-16T07:38:14;16;16;
70249;PMS5003;57644;48.416;-123.374;2022-10-16T07:40:44;17;17;
70249;PMS5003;57644;48.416;-123.374;2022-10-16T07:43:14;17;17;
70249;PMS5003;57644;48.416;-123.374;2022-10-16T07:45:46;18;16;
70249;PMS5003;57644;48.416;-123.374;2022-10-16T07:48:15;16;14;
70249;PMS5003;57644;48.416;-123.374;2022-10-16T07:50:45;16;16;
70249;PMS5003;57644;48.416;-123.374;2022-10-16T07:53:16;21;19;
70249;PMS5003;57644;48.416;-123.374;2022-10-16T07:55:46;17;16;
70249;PMS5003;57644;48.416;-123.374;2022-10-16T07:58:16;20;19;
70249;PMS5003;57644;48.416;-123.374;2022-10-16T08:00:46;25;24;
70249;PMS5003;57644;48.416;-123.374;2022-10-16T08:03:17;18;17;
70249;PMS5003;57644;48.416;-123.374;2022-10-16T08:05:47;19;18;
70249;PMS5003;57644;48.416;-123.374;2022-10-16T08:08:18;25;23;
70249;PMS5003;57644;48.416;-123.374;2022-10-16T08:10:48;19;19;
70249;PMS5003;57644;48.416;-123.374;2022-10-16T08:13:19;18;17;
70249;PMS5003;57644;48.416;-123.374;2022-10-16T08:15:50;21;19;
70249;PMS5003;57644;48.416;-123.374;2022-10-16T08:18:20;19;19;
70249;PMS5003;57644;48.416;-123.374;2022-10-16T08:20:55;25;23;
70249;PMS5003;57644;48.416;-123.374;2022-10-16T08:23:20;26;26;
70249;PMS5003;57644;48.416;-123.374;2022-10-16T08:25:50;23;23;
70249;PMS5003;57644;48.416;-123.374;2022-10-16T08:28:22;26;25;
70249;PMS5003;57644;48.416;-123.374;2022-10-16T08:30:51;29;28;
70249;PMS5003;57644;48.416;-123.374;2022-10-16T08:33:22;31;28;
70249;PMS5003;57644;48.416;-123.374;2022-10-16T08:35:52;28;28;
70249;PMS5003;57644;48.416;-123.374;2022-10-16T08:38:23;30;30;
70249;PMS5003;57644;48.416;-123.374;2022-10-16T08:40:53;30;28;
70249;PMS5003;57644;48.416;-123.374;2022-10-16T08:43:28;31;29;
70249;PMS5003;57644;48.416;-123.374;2022-10-16T08:48:25;32;28;
70249;PMS5003;57644;48.416;-123.374;2022-10-16T08:50:54;34;32;
70249;PMS5003;57644;48.416;-123.374;2022-10-16T08:53:26;30;30;
70249;PMS5003;57644;48.416;-123.374;2022-10-16T08:55:55;32;29;
70249;PMS5003;57644;48.416;-123.374;2022-10-16T08:58:27;28;26;
70249;PMS5003;57644;48.416;-123.374;2022-10-16T09:00:56;22;22;
70249;PMS5003;57644;48.416;-123.374;2022-10-16T09:03:31;24;24;
70249;PMS5003;57644;48.416;-123.374;2022-10-16T09:06:04;27;27;
70249;PMS5003;57644;48.416;-123.374;2022-10-16T09:08:30;25;23;
70249;PMS5003;57644;48.416;-123.374;2022-10-16T09:10:59;28;26;
70249;PMS5003;57644;48.416;-123.374;2022-10-16T09:13:29;23;23;
70249;PMS5003;57644;48.416;-123.374;2022-10-16T09:16:01;31;28;
70249;PMS5003;57644;48.416;-123.374;2022-10-16T09:18:30;28;28;
70249;PMS5003;57644;48.416;-123.374;2022-10-16T09:21:00;28;27;
70249;PMS5003;57644;48.416;-123.374;2022-10-16T09:23:30;29;27;
70249;PMS5003;57644;48.416;-123.374;2022-10-16T09:26:01;31;30;
70249;PMS5003;57644;48.416;-123.374;2022-10-16T09:28:31;30;30;
70249;PMS5003;57644;48.416;-123.374;2022-10-16T09:31:01;30;29;
70249;PMS5003;57644;48.416;-123.374;2022-10-16T09:33:33;32;30;
70249;PMS5003;57644;48.416;-123.374;2022-10-16T09:36:03;34;31;
70249;PMS5003;57644;48.416;-123.374;2022-10-16T09:38:33;35;33;
70249;PMS5003;57644;48.416;-123.374;2022-10-16T09:41:10;37;35;
70249;PMS5003;57644;48.416;-123.374;2022-10-16T09:43:35;37;34;
70249;PMS5003;57644;48.416;-123.374;2022-10-16T09:46:05;36;35;
70249;PMS5003;57644;48.416;-123.374;2022-10-16T09:48:36;41;40;
70249;PMS5003;57644;48.416;-123.374;2022-10-16T09:51:06;38;37;
70249;PMS5003;57644;48.416;-123.374;2022-10-16T09:53:39;46;45;
70249;PMS5003;57644;48.416;-123.374;2022-10-16T09:56:06;40;40;
70249;PMS5003;57644;48.416;-123.374;2022-10-16T09:58:37;48;46;
70249;PMS5003;57644;48.416;-123.374;2022-10-16T10:01:11;53;52;
70249;PMS5003;57644;48.416;-123.374;2022-10-16T10:03:39;41;39;
70249;PMS5003;57644;48.416;-123.374;2022-10-16T10:08:39;50;47;
70249;PMS5003;57644;48.416;-123.374;2022-10-16T10:11:09;48;46;
70249;PMS5003;57644;48.416;-123.374;2022-10-16T10:13:40;50;48;
70249;PMS5003;57644;48.416;-123.374;2022-10-16T10:16:11;58;55;
70249;PMS5003;57644;48.416;-123.374;2022-10-16T10:18:41;53;50;
70249;PMS5003;57644;48.416;-123.374;2022-10-16T10:21:12;61;60;
70249;PMS5003;57644;48.416;-123.374;2022-10-16T10:23:42;57;55;
70249;PMS5003;57644;48.416;-123.374;2022-10-16T10:26:13;63;62;
70249;PMS5003;57644;48.416;-123.374;2022-10-16T10:28:46;60;56;
70249;PMS5003;57644;48.416;-123.374;2022-10-16T10:31:17;58;57;
70249;PMS5003;57644;48.416;-123.374;2022-10-16T10:33:47;62;61;
70249;PMS5003;57644;48.416;-123.374;2022-10-16T10:36:19;62;61;
70249;PMS5003;57644;48.416;-123.374;2022-10-16T10:38:47;65;63;
70249;PMS5003;57644;48.416;-123.374;2022-10-16T10:41:20;59;55;
70249;PMS5003;57644;48.416;-123.374;2022-10-16T10:43:50;66;63;
70249;PMS5003;57644;48.416;-123.374;2022-10-16T10:46:17;64;62;
70249;PMS5003;57644;48.416;-123.374;2022-10-16T10:48:51;64;61;
70249;PMS5003;57644;48.416;-123.374;2022-10-16T10:51:18;57;55;
70249;PMS5003;57644;48.416;-123.374;2022-10-16T10:53:48;63;62;
70249;PMS5003;57644;48.416;-123.374;2022-10-16T10:56:22;63;59;
70249;PMS5003;57644;48.416;-123.374;2022-10-16T10:58:52;70;61;
70249;PMS5003;57644;48.416;-123.374;2022-10-16T11:01:18;59;57;
70249;PMS5003;57644;48.416;-123.374;2022-10-16T11:06:19;55;53;
70249;PMS5003;57644;48.416;-123.374;2022-10-16T11:08:49;67;64;
70249;PMS5003;57644;48.416;-123.374;2022-10-16T11:11:20;60;59;
70249;PMS5003;57644;48.416;-123.374;2022-10-16T11:13:51;56;54;
70249;PMS5003;57644;48.416;-123.374;2022-10-16T11:16:21;63;60;
70249;PMS5003;57644;48.416;-123.374;2022-10-16T11:18:51;63;61;
70249;PMS5003;57644;48.416;-123.374;2022-10-16T11:21:21;63;59;
70249;PMS5003;57644;48.416;-123.374;2022-10-16T11:23:53;60;57;
70249;PMS5003;57644;48.416;-123.374;2022-10-16T11:26:23;60;58;
70249;PMS5003;57644;48.416;-123.374;2022-10-16T11:28:53;59;56;
70249;PMS5003;57644;48.416;-123.374;2022-10-16T11:31:25;67;66;
70249;PMS5003;57644;48.416;-123.374;2022-10-16T11:33:54;65;62;
70249;PMS5003;57644;48.416;-123.374;2022-10-16T11:36:25;67;63;
70249;PMS5003;57644;48.416;-123.374;2022-10-16T11:38:57;63;62;
70249;PMS5003;57644;48.416;-123.374;2022-10-16T11:41:27;69;65;
70249;PMS5003;57644;48.416;-123.374;2022-10-16T11:46:25;65;64;
70249;PMS5003;57644;48.416;-123.374;2022-10-16T11:48:57;76;71;
70249;PMS5003;57644;48.416;-123.374;2022-10-16T11:51:29;75;68;
70249;PMS5003;57644;48.416;-123.374;2022-10-16T11:53:58;79;77;
70249;PMS5003;57644;48.416;-123.374;2022-10-16T11:56:27;78;75;
70249;PMS5003;57644;48.416;-123.374;2022-10-16T11:58:58;76;74;
70249;PMS5003;57644;48.416;-123.374;2022-10-16T12:01:29;72;70;
70249;PMS5003;57644;48.416;-123.374;2022-10-16T12:04:05;74;72;
70249;PMS5003;57644;48.416;-123.374;2022-10-16T12:06:30;78;76;
70249;PMS5003;57644;48.416;-123.374;2022-10-16T12:08:58;85;81;
70249;PMS5003;57644;48.416;-123.374;2022-10-16T12:11:33;82;78;
70249;PMS5003;57644;48.416;-123.374;2022-10-16T12:16:29;73;71;
70249;PMS5003;57644;48.416;-123.374;2022-10-16T12:19:09;73;71;
70249;PMS5003;57644;48.416;-123.374;2022-10-16T12:21:31;89;77;
70249;PMS5003;57644;48.416;-123.374;2022-10-16T12:24:02;79;74;
70249;PMS5003;57644;48.416;-123.374;2022-10-16T12:26:32;78;76;
70249;PMS5003;57644;48.416;-123.374;2022-10-16T12:31:36;81;79;
70249;PMS5003;57644;48.416;-123.374;2022-10-16T12:34:04;91;86;
70249;PMS5003;57644;48.416;-123.374;2022-10-16T12:36:34;83;78;
70249;PMS5003;57644;48.416;-123.374;2022-10-16T12:39:05;91;88;
70249;PMS5003;57644;48.416;-123.374;2022-10-16T12:41:35;92;86;
70249;PMS5003;57644;48.416;-123.374;2022-10-16T12:44:05;93;88;
70249;PMS5003;57644;48.416;-123.374;2022-10-16T12:46:37;93;87;
70249;PMS5003;57644;48.416;-123.374;2022-10-16T12:49:14;90;89;
70249;PMS5003;57644;48.416;-123.374;2022-10-16T12:51:36;97;90;
70249;PMS5003;57644;48.416;-123.374;2022-10-16T12:54:11;97;91;
70249;PMS5003;57644;48.416;-123.374;2022-10-16T12:56:39;96;93;
70249;PMS5003;57644;48.416;-123.374;2022-10-16T12:59:10;100;95;
70249;PMS5003;57644;48.416;-123.374;2022-10-16T13:01:42;101;96;
70249;PMS5003;57644;48.416;-123.374;2022-10-16T13:06:41;99;93;
70249;PMS5003;57644;48.416;-123.374;2022-10-16T13:11:45;94;89;
70249;PMS5003;57644;48.416;-123.374;2022-10-16T13:14:16;96;89;
70249;PMS5003;57644;48.416;-123.374;2022-10-16T13:16:44;89;86;
70249;PMS5003;57644;48.416;-123.374;2022-10-16T13:19:16;91;86;
70249;PMS5003;57644;48.416;-123.374;2022-10-16T13:21:44;93;92;
70249;PMS5003;57644;48.416;-123.374;2022-10-16T13:24:18;95;94;
70249;PMS5003;57644;48.416;-123.374;2022-10-16T13:26:44;102;96;
70249;PMS5003;57644;48.416;-123.374;2022-10-16T13:29:14;97;95;
70249;PMS5003;57644;48.416;-123.374;2022-10-16T13:31:44;97;95;
70249;PMS5003;57644;48.416;-123.374;2022-10-16T13:34:15;104;99;
70249;PMS5003;57644;48.416;-123.374;2022-10-16T13:36:45;101;96;
70249;PMS5003;57644;48.416;-123.374;2022-10-16T13:39:20;106;100;
70249;PMS5003;57644;48.416;-123.374;2022-10-16T13:41:46;107;104;
70249;PMS5003;57644;48.416;-123.374;2022-10-16T13:44:18;110;104;
70249;PMS5003;57644;48.416;-123.374;2022-10-16T13:46:46;112;109;
70249;PMS5003;57644;48.416;-123.374;2022-10-16T13:49:17;118;113;
70249;PMS5003;57644;48.416;-123.374;2022-10-16T13:54:17;108;106;
70249;PMS5003;57644;48.416;-123.374;2022-10-16T13:56:48;113;105;
70249;PMS5003;57644;48.416;-123.374;2022-10-16T14:01:49;107;103;
70249;PMS5003;57644;48.416;-123.374;2022-10-16T14:04:19;109;102;
70249;PMS5003;57644;48.416;-123.374;2022-10-16T14:06:50;105;102;
70249;PMS5003;57644;48.416;-123.374;2022-10-16T14:09:21;101;98;
70249;PMS5003;57644;48.416;-123.374;2022-10-16T14:11:50;97;96;
70249;PMS5003;57644;48.416;-123.374;2022-10-16T14:14:21;99;96;
70249;PMS5003;57644;48.416;-123.374;2022-10-16T14:16:51;95;93;
70249;PMS5003;57644;48.416;-123.374;2022-10-16T14:19:21;101;97;
70249;PMS5003;57644;48.416;-123.374;2022-10-16T14:21:51;97;94;
70249;PMS5003;57644;48.416;-123.374;2022-10-16T14:24:26;95;92;
70249;PMS5003;57644;48.416;-123.374;2022-10-16T14:26:51;98;94;
70249;PMS5003;57644;48.416;-123.374;2022-10-16T14:29:23;97;91;
70249;PMS5003;57644;48.416;-123.374;2022-10-16T14:31:56;94;90;
70249;PMS5003;57644;48.416;-123.374;2022-10-16T14:34:24;99;93;
70249;PMS5003;57644;48.416;-123.374;2022-10-16T14:36:54;97;92;
70249;PMS5003;57644;48.416;-123.374;2022-10-16T14:39:23;98;92;
70249;PMS5003;57644;48.416;-123.374;2022-10-16T14:41:55;90;87;
70249;PMS5003;57644;48.416;-123.374;2022-10-16T14:44:26;93;89;
70249;PMS5003;57644;48.416;-123.374;2022-10-16T14:46:54;91;87;
70249;PMS5003;57644;48.416;-123.374;2022-10-16T14:49:25;88;86;
70249;PMS5003;57644;48.416;-123.374;2022-10-16T14:51:55;87;84;
70249;PMS5003;57644;48.416;-123.374;2022-10-16T14:54:26;94;92;
70249;PMS5003;57644;48.416;-123.374;2022-10-16T14:56:57;90;89;
70249;PMS5003;57644;48.416;-123.374;2022-10-16T14:59:27;87;82;
70249;PMS5003;57644;48.416;-123.374;2022-10-16T15:01:57;91;89;
70249;PMS5003;57644;48.416;-123.374;2022-10-16T15:04:27;94;93;
70249;PMS5003;57644;48.416;-123.374;2022-10-16T15:06:57;101;95;
70249;PMS5003;57644;48.416;-123.374;2022-10-16T15:09:28;102;96;
70249;PMS5003;57644;48.416;-123.374;2022-10-16T15:11:58;102;95;
70249;PMS5003;57644;48.416;-123.374;2022-10-16T15:14:29;93;90;
70249;PMS5003;57644;48.416;-123.374;2022-10-16T15:16:59;96;91;
70249;PMS5003;57644;48.416;-123.374;2022-10-16T15:19:29;102;96;
70249;PMS5003;57644;48.416;-123.374;2022-10-16T15:21:59;103;97;
70249;PMS5003;57644;48.416;-123.374;2022-10-16T15:24:30;92;87;
70249;PMS5003;57644;48.416;-123.374;2022-10-16T15:27:00;104;102;
70249;PMS5003;57644;48.416;-123.374;2022-10-16T15:29:30;100;95;
70249;PMS5003;57644;48.416;-123.374;2022-10-16T15:32:00;106;103;
70249;PMS5003;57644;48.416;-123.374;2022-10-16T15:34:30;112;105;
70249;PMS5003;57644;48.416;-123.374;2022-10-16T15:37:02;107;105;
70249;PMS5003;57644;48.416;-123.374;2022-10-16T15:39:31;108;104;
70249;PMS5003;57644;48.416;-123.374;2022-10-16T15:42:02;113;112;
70249;PMS5003;57644;48.416;-123.374;2022-10-16T15:44:33;114;110;
70249;PMS5003;57644;48.416;-123.374;2022-10-16T15:47:03;106;103;
70249;PMS5003;57644;48.416;-123.374;2022-10-16T15:49:34;109;107;
70249;PMS5003;57644;48.416;-123.374;2022-10-16T15:52:04;113;110;
70249;PMS5003;57644;48.416;-123.374;2022-10-16T15:54:34;118;112;
70249;PMS5003;57644;48.416;-123.374;2022-10-16T15:57:04;118;108;
70249;PMS5003;57644;48.416;-123.374;2022-10-16T15:59:35;123;111;
70249;PMS5003;57644;48.416;-123.374;2022-10-16T16:02:05;115;111;
70249;PMS5003;57644;48.416;-123.374;2022-10-16T16:04:36;115;109;
70249;PMS5003;57644;48.416;-123.374;2022-10-16T16:07:06;118;112;
70249;PMS5003;57644;48.416;-123.374;2022-10-16T16:09:36;115;111;
70249;PMS5003;57644;48.416;-123.374;2022-10-16T16:12:06;119;116;
70249;PMS5003;57644;48.416;-123.374;2022-10-16T16:14:37;117;113;